createdAt,value
2023-08-17T00:20:32.111Z,7.43
2023-08-17T00:35:34.084Z,6.63
2023-08-17T00:50:38.055Z,6.27
2023-08-17T01:05:40.077Z,7.07
2023-08-17T01:20:43.152Z,7.17
2023-08-17T01:35:55.537Z,6.82
2023-08-17T01:50:57.750Z,8.53
2023-08-17T02:06:00.708Z,8.23
2023-08-17T02:21:02.799Z,8.90
2023-08-17T02:36:05.316Z,15.37
2023-08-17T02:51:07.362Z,10.17
2023-08-17T03:06:11.163Z,10.10
2023-08-17T03:21:13.243Z,10.15
2023-08-17T03:36:15.307Z,10.30
2023-08-17T03:51:17.347Z,8.30
2023-08-17T04:06:19.344Z,7.90
2023-08-17T04:21:21.756Z,6.80
2023-08-17T04:51:25.675Z,16.15
2023-08-17T05:06:29.738Z,7.63
2023-08-17T05:21:31.820Z,6.22
2023-08-17T05:36:33.816Z,8.75
2023-08-17T05:51:35.896Z,8.88
2023-08-17T06:06:37.910Z,7.20
2023-08-17T06:21:39.878Z,6.35
2023-08-17T06:36:41.885Z,5.50
2023-08-17T06:51:44.064Z,5.30
2023-08-17T07:06:46.098Z,4.85
2023-08-17T07:21:48.105Z,4.28
2023-08-17T07:36:52.279Z,4.75
2023-08-17T07:51:54.325Z,4.22
2023-08-17T08:06:56.256Z,4.03
2023-08-17T08:21:58.219Z,3.42
2023-08-17T08:37:00.310Z,3.40
2023-08-17T08:52:18.500Z,3.35
2023-08-17T09:07:22.328Z,3.60
2023-08-17T09:37:55.877Z,3.40
2023-08-17T09:52:58.785Z,3.75
2023-08-17T10:08:02.780Z,3.42
2023-08-17T10:23:25.263Z,3.33
2023-08-17T10:38:27.498Z,3.50
2023-08-17T10:53:37.187Z,3.85
2023-08-17T11:08:54.493Z,3.85
2023-08-17T11:23:59.748Z,3.80
2023-08-17T11:39:01.715Z,3.65
2023-08-17T11:54:06.262Z,3.75
2023-08-17T12:09:08.275Z,3.70
2023-08-17T12:24:15.506Z,3.63
2023-08-17T12:39:17.894Z,3.58
2023-08-17T12:54:19.961Z,3.38
2023-08-17T13:09:22.845Z,3.15
2023-08-17T13:24:24.842Z,3.45
2023-08-17T13:39:29.235Z,3.28
2023-08-17T13:54:31.543Z,4.28
2023-08-17T14:09:33.589Z,3.35
2023-08-17T14:24:35.579Z,3.20
2023-08-17T14:39:38.065Z,3.42
2023-08-17T14:54:43.366Z,2.95
2023-08-17T15:09:45.661Z,3.28
2023-08-17T15:24:48.461Z,3.58
2023-08-17T15:39:51.879Z,3.78
2023-08-17T15:54:55.724Z,4.43
2023-08-17T16:10:00.179Z,4.43
2023-08-17T16:25:02.328Z,5.13
2023-08-17T16:40:05.654Z,4.95
2023-08-17T16:55:08.319Z,4.70
2023-08-17T17:10:10.935Z,12.30
2023-08-17T17:43:36.876Z,5.10
2023-08-17T17:58:39.339Z,7.68
2023-08-17T18:13:41.275Z,9.80
2023-08-17T18:28:43.192Z,4.85
2023-08-17T18:43:45.238Z,4.68
2023-08-17T18:58:51.012Z,6.03
2023-08-17T19:13:53.072Z,5.35
2023-08-17T19:28:55.073Z,4.32
2023-08-17T19:43:57.045Z,5.00
2023-08-17T19:58:59.197Z,3.97
2023-08-17T20:14:01.159Z,4.28
2023-08-17T20:29:03.353Z,3.85
2023-08-17T20:44:05.560Z,3.53
2023-08-17T20:59:07.669Z,3.55
2023-08-17T21:14:09.614Z,3.85
2023-08-17T21:29:11.693Z,3.83
2023-08-17T21:59:15.901Z,3.67
2023-08-17T22:14:17.833Z,4.47
2023-08-17T22:29:19.794Z,7.13
2023-08-17T22:44:21.727Z,10.33
2023-08-17T22:59:23.990Z,11.10
2023-08-17T23:29:27.707Z,5.20
2023-08-17T23:44:30.749Z,7.33
2023-08-17T23:59:33.026Z,8.65
